createdAt,value
2022-10-18T00:02:46.131Z,102664.88
2022-10-18T00:07:48.027Z,102661.34
2022-10-18T00:12:50.005Z,102669.38
2022-10-18T00:17:51.941Z,102664.13
2022-10-18T00:22:53.900Z,102658.50
2022-10-18T00:27:55.882Z,102661.34
2022-10-18T00:32:57.847Z,102652.41
2022-10-18T00:37:59.728Z,102645.94
2022-10-18T00:43:01.727Z,102631.81
2022-10-18T00:48:04.893Z,102623.75
2022-10-18T00:53:11.977Z,102623.88
2022-10-18T00:58:17.663Z,102633.47
2022-10-18T01:03:19.551Z,102621.19
2022-10-18T01:08:33.296Z,102616.56
2022-10-18T01:14:15.336Z,102614.84
2022-10-18T01:19:38.737Z,102598.72
2022-10-18T01:30:36.629Z,102605.81
2022-10-18T01:35:44.623Z,102598.56
2022-10-18T01:40:50.510Z,102591.66
2022-10-18T01:45:55.333Z,102582.72
2022-10-18T01:50:57.328Z,102582.63
2022-10-18T01:56:08.349Z,102571.13
2022-10-18T02:01:37.739Z,102566.63
2022-10-18T02:06:45.596Z,102557.72
2022-10-18T02:11:52.635Z,102555.13
2022-10-18T02:16:58.799Z,102560.41
2022-10-18T02:22:01.806Z,102554.91
2022-10-18T02:27:04.171Z,102536.47
2022-10-18T02:32:20.163Z,102554.16
2022-10-18T02:37:22.814Z,102552.34
2022-10-18T02:42:24.974Z,102550.50
2022-10-18T02:47:27.068Z,102542.47
2022-10-18T02:52:29.014Z,102538.91
2022-10-18T02:57:31.099Z,102548.69
2022-10-18T03:02:33.353Z,102547.84
2022-10-18T03:07:35.491Z,102546.13
2022-10-18T03:12:37.487Z,102546.47
2022-10-18T03:17:39.391Z,102555.78
2022-10-18T03:22:41.311Z,102552.34
2022-10-18T03:27:43.314Z,102561.25
2022-10-18T03:32:45.172Z,102561.25
2022-10-18T03:37:47.200Z,102577.47
2022-10-18T03:42:49.157Z,102583.59
2022-10-18T03:47:51.204Z,102584.56
2022-10-18T03:52:54.665Z,102580.06
2022-10-18T03:57:56.837Z,102571.13
2022-10-18T04:02:58.782Z,102579.19
2022-10-18T04:08:00.810Z,102571.22
2022-10-18T04:13:02.716Z,102564.50
2022-10-18T04:18:04.860Z,102569.44
2022-10-18T04:23:07.102Z,102578.56
2022-10-18T04:28:09.036Z,102586.38
2022-10-18T04:33:10.997Z,102591.75
2022-10-18T04:38:14.571Z,102596.28
2022-10-18T04:43:16.809Z,102596.28
2022-10-18T04:48:19.028Z,102601.66
2022-10-18T04:53:21.003Z,102604.31
2022-10-18T04:58:22.969Z,102605.25
2022-10-18T05:03:24.945Z,102599.91
2022-10-18T05:08:27.100Z,102608.72
2022-10-18T05:13:29.472Z,102602.59
2022-10-18T05:18:31.739Z,102606.28
2022-10-18T05:23:33.658Z,102611.50
2022-10-18T05:28:40.424Z,102605.25
2022-10-18T05:33:43.225Z,102595.53
2022-10-18T05:38:45.680Z,102595.53
2022-10-18T05:43:47.566Z,102601.72
2022-10-18T05:48:51.355Z,102596.34
2022-10-18T05:53:54.880Z,102600.75
2022-10-18T05:58:56.819Z,102602.59
2022-10-18T06:03:58.834Z,102599.03
2022-10-18T06:09:00.812Z,102600.91
2022-10-18T06:14:03.077Z,102602.72
2022-10-18T06:19:05.062Z,102612.47
2022-10-18T06:24:07.004Z,102616.00
2022-10-18T06:29:08.966Z,102602.59
2022-10-18T06:34:10.966Z,102613.47
2022-10-18T06:39:12.856Z,102619.69
2022-10-18T06:44:14.885Z,102625.06
2022-10-18T06:49:19.138Z,102627.75
2022-10-18T06:54:21.599Z,102607.59
2022-10-18T06:59:25.262Z,102636.63
2022-10-18T07:04:30.659Z,102640.16
2022-10-18T07:09:32.635Z,102642.00
2022-10-18T07:14:34.752Z,102653.75
2022-10-18T07:19:36.935Z,102653.75
2022-10-18T07:24:39.121Z,102664.47
2022-10-18T07:29:41.228Z,102665.34
2022-10-18T07:34:43.174Z,102667.16
2022-10-18T07:39:45.072Z,102655.41
2022-10-18T07:44:47.084Z,102659.97
2022-10-18T07:49:49.078Z,102665.44
2022-10-18T07:54:51.040Z,102658.25
2022-10-18T07:59:56.953Z,102671.66
2022-10-18T08:04:58.863Z,102685.94
2022-10-18T08:10:00.977Z,102713.66
2022-10-18T08:15:02.975Z,102734.13
2022-10-18T08:20:12.356Z,102718.16
2022-10-18T08:25:29.229Z,102719.03
2022-10-18T08:30:31.051Z,102717.41
2022-10-18T08:35:33.093Z,102736.09
2022-10-18T08:40:35.236Z,102730.59
2022-10-18T08:45:43.229Z,102727.91
2022-10-18T08:50:46.901Z,102735.97
2022-10-18T08:55:53.079Z,102736.81
2022-10-18T09:01:29.972Z,102737.94
2022-10-18T09:06:52.608Z,102744.00
2022-10-18T09:12:45.317Z,102739.66
2022-10-18T09:18:05.413Z,102748.66
2022-10-18T09:23:10.063Z,102750.38
2022-10-18T09:28:15.013Z,102751.25
2022-10-18T09:33:36.009Z,102748.56
2022-10-18T09:38:48.549Z,102733.91
2022-10-18T09:43:59.360Z,102744.00
2022-10-18T09:49:16.900Z,102742.34
2022-10-18T09:54:42.448Z,102738.66
2022-10-18T09:59:47.430Z,102732.31
2022-10-18T10:04:50.673Z,102728.69
2022-10-18T10:10:08.070Z,102731.44
2022-10-18T10:15:28.242Z,102728.75
2022-10-18T10:20:42.289Z,102717.94
2022-10-18T10:25:44.248Z,102717.09
2022-10-18T10:30:46.268Z,102721.47
2022-10-18T10:35:59.268Z,102713.50
2022-10-18T10:41:01.395Z,102714.41
2022-10-18T10:46:13.541Z,102713.44
2022-10-18T10:51:38.055Z,102700.75
2022-10-18T10:56:55.940Z,102696.47
2022-10-18T11:02:22.538Z,102697.31
2022-10-18T11:07:36.789Z,102675.84
2022-10-18T11:12:54.417Z,102664.13
2022-10-18T11:18:08.721Z,102640.94
2022-10-18T11:23:20.165Z,102642.53
2022-10-18T11:29:01.947Z,102631.91
2022-10-18T11:34:30.058Z,102629.13
2022-10-18T11:39:59.289Z,102626.53
2022-10-18T11:45:19.373Z,102626.44
2022-10-18T11:51:15.506Z,102618.50
2022-10-18T11:56:31.853Z,102618.50
2022-10-18T12:02:06.238Z,102615.69
2022-10-18T12:07:12.254Z,102611.19
2022-10-18T12:12:31.973Z,102601.25
2022-10-18T12:17:46.372Z,102591.38
2022-10-18T12:23:05.051Z,102589.56
2022-10-18T12:28:29.434Z,102584.19
2022-10-18T12:33:38.087Z,102586.00
2022-10-18T12:38:44.143Z,102567.09
2022-10-18T12:43:52.743Z,102574.28
2022-10-18T12:49:05.574Z,102565.38
2022-10-18T12:54:12.790Z,102563.56
2022-10-18T12:59:17.797Z,102570.63
2022-10-18T13:04:28.697Z,102561.63
2022-10-18T13:09:36.555Z,102559.78
2022-10-18T13:15:05.731Z,102552.59
2022-10-18T13:20:38.793Z,102555.38
2022-10-18T13:25:57.664Z,102546.47
2022-10-18T13:31:19.343Z,102526.72
2022-10-18T13:36:25.403Z,102515.00
2022-10-18T13:41:31.315Z,102520.38
2022-10-18T13:46:48.830Z,102523.06
2022-10-18T13:52:21.832Z,102525.72
2022-10-18T13:58:02.069Z,102524.88
2022-10-18T14:03:56.876Z,102526.59
2022-10-18T14:09:09.670Z,102519.25
2022-10-18T14:14:38.408Z,102497.56
2022-10-18T14:19:45.072Z,102507.66
2022-10-18T14:25:47.907Z,102502.28
2022-10-18T14:31:07.489Z,102490.72
2022-10-18T14:36:15.385Z,102491.41
2022-10-18T14:41:29.537Z,102472.63
2022-10-18T14:46:33.966Z,102479.59
2022-10-18T14:51:36.996Z,102480.44
2022-10-18T14:56:41.480Z,102478.72
2022-10-18T15:01:53.921Z,102464.94
2022-10-18T15:06:56.191Z,102467.00
2022-10-18T15:12:00.814Z,102480.56
2022-10-18T15:17:14.063Z,102476.03
2022-10-18T15:22:31.795Z,102483.25
2022-10-18T15:27:38.321Z,102478.72
2022-10-18T15:32:51.141Z,102468.09
2022-10-18T15:37:53.770Z,102466.16
2022-10-18T15:43:02.524Z,102461.75
2022-10-18T15:48:09.375Z,102442.84
2022-10-18T15:53:32.259Z,102419.53
2022-10-18T15:58:44.308Z,102422.22
2022-10-18T16:03:47.320Z,102447.25
2022-10-18T16:08:53.193Z,102462.50
2022-10-18T16:13:57.990Z,102453.44
2022-10-18T16:19:02.373Z,102468.72
2022-10-18T16:24:05.456Z,102480.28
2022-10-18T16:29:11.286Z,102489.19
2022-10-18T16:34:15.017Z,102487.38
2022-10-18T16:39:19.575Z,102479.31
2022-10-18T16:44:21.682Z,102486.50
2022-10-18T16:49:26.386Z,102483.81
2022-10-18T16:54:28.633Z,102481.13
2022-10-18T16:59:31.976Z,102479.31
2022-10-18T17:04:33.783Z,102477.75
2022-10-18T17:09:37.176Z,102475.66
2022-10-18T17:14:39.032Z,102469.69
2022-10-18T17:19:41.217Z,102484.69
2022-10-18T17:24:43.199Z,102481.03
2022-10-18T17:29:45.425Z,102489.06
2022-10-18T17:34:47.382Z,102494.44
2022-10-18T17:39:49.309Z,102515.06
2022-10-18T17:44:54.233Z,102502.50
2022-10-18T17:49:58.990Z,102517.66
2022-10-18T17:55:00.936Z,102510.44
2022-10-18T18:00:03.567Z,102524.00
2022-10-18T18:05:13.753Z,102521.31
2022-10-18T18:10:15.794Z,102521.31
2022-10-18T18:15:17.781Z,102520.44
2022-10-18T18:20:20.781Z,102519.47
2022-10-18T18:25:22.722Z,102514.97
2022-10-18T18:30:24.734Z,102513.25
2022-10-18T18:35:26.789Z,102495.31
2022-10-18T18:40:28.739Z,102496.16
2022-10-18T18:45:30.916Z,102484.56
2022-10-18T18:50:35.312Z,102486.38
2022-10-18T18:55:39.875Z,102501.53
2022-10-18T19:00:44.400Z,102516.78
2022-10-18T19:05:46.694Z,102507.88
2022-10-18T19:10:49.807Z,102514.09
2022-10-18T19:15:51.721Z,102507.88
2022-10-18T19:20:53.612Z,102505.19
2022-10-18T19:25:55.695Z,102486.38
2022-10-18T19:30:58.606Z,102484.69
2022-10-18T19:36:00.718Z,102486.50
2022-10-18T19:41:02.573Z,102482.84
2022-10-18T19:46:05.219Z,102507.03
2022-10-18T19:51:09.535Z,102500.69
2022-10-18T19:56:18.710Z,102508.84
2022-10-18T20:01:21.042Z,102506.03
2022-10-18T20:06:23.298Z,102514.97
2022-10-18T20:11:27.252Z,102512.38
2022-10-18T20:16:32.343Z,102494.44
2022-10-18T20:21:36.063Z,102487.38
2022-10-18T20:26:39.789Z,102498.00
2022-10-18T20:31:42.032Z,102489.94
2022-10-18T20:36:44.072Z,102506.16
2022-10-18T20:41:46.043Z,102500.78
2022-10-18T20:46:48.149Z,102501.66
2022-10-18T20:51:50.309Z,102501.75
2022-10-18T20:56:52.229Z,102506.16
2022-10-18T21:01:54.420Z,102503.63
2022-10-18T21:06:56.378Z,102501.75
2022-10-18T21:11:58.562Z,102498.25
2022-10-18T21:17:00.460Z,102482.16
2022-10-18T21:22:02.446Z,102481.13
2022-10-18T21:27:04.364Z,102457.63
2022-10-18T21:32:06.275Z,102477.59
2022-10-18T21:37:08.211Z,102472.22
2022-10-18T21:42:10.252Z,102478.59
2022-10-18T21:47:12.285Z,102489.34
2022-10-18T21:52:14.188Z,102491.03
2022-10-18T21:57:16.194Z,102483.97
2022-10-18T22:02:18.169Z,102494.56
2022-10-18T22:07:20.253Z,102484.84
2022-10-18T22:12:22.243Z,102487.63
2022-10-18T22:17:24.676Z,102474.72
2022-10-18T22:22:26.660Z,102482.97
2022-10-18T22:27:30.628Z,102484.84
2022-10-18T22:32:32.712Z,102477.59
2022-10-18T22:37:34.872Z,102470.56
2022-10-18T22:42:37.203Z,102480.28
2022-10-18T22:47:39.224Z,102468.72
2022-10-18T22:52:41.230Z,102474.22
2022-10-18T22:57:43.268Z,102464.31
2022-10-18T23:02:45.360Z,102463.47
2022-10-18T23:07:49.301Z,102446.50
2022-10-18T23:12:51.388Z,102442.00
2022-10-18T23:17:54.904Z,102443.81
2022-10-18T23:22:57.373Z,102433.06
2022-10-18T23:27:59.374Z,102432.22
2022-10-18T23:33:01.584Z,102416.09
2022-10-18T23:38:04.309Z,102417.94
2022-10-18T23:43:06.456Z,102416.97
2022-10-18T23:48:08.683Z,102408.06
2022-10-18T23:53:11.217Z,102404.50
2022-10-18T23:58:13.171Z,102416.09
